createdAt,value
2022-11-14T00:00:32.544Z,13.20
2022-11-14T00:03:17.958Z,11.10
2022-11-14T00:06:07.283Z,10.20
2022-11-14T00:08:52.585Z,10.00
2022-11-14T00:11:37.741Z,9.60
2022-11-14T00:14:22.867Z,10.30
2022-11-14T00:17:07.905Z,11.50
2022-11-14T00:19:53.195Z,11.70
2022-11-14T00:22:38.354Z,12.80
2022-11-14T00:25:23.467Z,14.60
2022-11-14T00:28:08.870Z,15.30
2022-11-14T00:30:54.514Z,15.00
2022-11-14T00:33:39.660Z,15.10
2022-11-14T00:36:24.664Z,14.80
2022-11-14T00:39:12.664Z,13.10
2022-11-14T00:41:58.098Z,13.30
2022-11-14T00:44:43.226Z,13.30
2022-11-14T00:47:28.605Z,12.70
2022-11-14T00:50:13.890Z,12.90
2022-11-14T00:52:59.339Z,13.00
2022-11-14T00:55:44.396Z,12.10
2022-11-14T00:58:29.648Z,11.90
2022-11-14T01:01:15.572Z,11.00
2022-11-14T01:04:00.724Z,11.40
2022-11-14T01:06:45.778Z,10.70
2022-11-14T01:09:31.090Z,11.50
2022-11-14T01:12:16.671Z,10.50
2022-11-14T01:15:02.078Z,10.10
2022-11-14T01:17:47.402Z,10.30
2022-11-14T01:20:32.743Z,10.00
2022-11-14T01:23:18.166Z,9.30
2022-11-14T01:26:08.395Z,9.10
2022-11-14T01:28:53.797Z,9.40
2022-11-14T01:31:39.081Z,9.50
2022-11-14T01:34:24.294Z,9.10
2022-11-14T01:37:09.754Z,10.70
2022-11-14T01:39:54.867Z,10.40
2022-11-14T01:42:40.183Z,10.40
2022-11-14T01:45:59.551Z,10.80
2022-11-14T01:49:09.119Z,11.10
2022-11-14T01:52:00.037Z,10.90
2022-11-14T01:54:47.191Z,11.80
2022-11-14T01:57:34.597Z,11.60
2022-11-14T02:00:20.130Z,10.70
2022-11-14T02:03:05.258Z,10.10
2022-11-14T02:05:50.667Z,10.80
2022-11-14T02:08:36.119Z,9.60
2022-11-14T02:11:21.178Z,10.30
2022-11-14T02:14:06.479Z,10.50
2022-11-14T02:17:22.271Z,10.40
2022-11-14T02:20:05.445Z,10.70
2022-11-14T02:22:51.102Z,11.20
2022-11-14T02:25:36.821Z,11.50
2022-11-14T02:28:22.064Z,10.80
2022-11-14T02:31:07.640Z,10.70
2022-11-14T02:33:52.589Z,10.90
2022-11-14T02:36:37.812Z,9.70
2022-11-14T02:39:23.316Z,9.50
2022-11-14T02:42:08.418Z,9.20
2022-11-14T02:44:53.686Z,8.60
2022-11-14T02:47:39.025Z,8.40
2022-11-14T02:50:24.415Z,9.30
2022-11-14T02:53:09.590Z,9.50
2022-11-14T02:55:54.806Z,9.10
2022-11-14T02:58:39.921Z,9.30
2022-11-14T03:01:25.185Z,9.00
2022-11-14T03:04:10.920Z,9.20
2022-11-14T03:06:56.104Z,9.00
2022-11-14T03:09:41.592Z,8.60
2022-11-14T03:12:27.124Z,9.20
2022-11-14T03:15:12.371Z,8.50
2022-11-14T03:17:58.044Z,8.70
2022-11-14T03:20:43.044Z,8.90
2022-11-14T03:23:28.048Z,9.00
2022-11-14T03:26:13.467Z,8.60
2022-11-14T03:28:58.628Z,8.40
2022-11-14T03:31:43.767Z,8.00
2022-11-14T03:34:28.922Z,8.10
2022-11-14T03:37:14.131Z,8.10
2022-11-14T03:39:59.268Z,7.60
2022-11-14T03:42:44.383Z,7.90
2022-11-14T03:45:29.380Z,7.90
2022-11-14T03:48:15.043Z,8.10
2022-11-14T03:51:00.434Z,7.80
2022-11-14T03:53:45.675Z,7.70
2022-11-14T03:56:30.848Z,7.30
2022-11-14T03:59:18.555Z,7.20
2022-11-14T04:02:03.765Z,7.20
2022-11-14T04:04:49.501Z,6.80
2022-11-14T04:07:34.992Z,6.60
2022-11-14T04:10:22.305Z,6.30
2022-11-14T04:13:07.717Z,6.00
2022-11-14T04:15:57.083Z,6.30
2022-11-14T04:18:42.203Z,6.30
2022-11-14T04:21:29.005Z,7.30
2022-11-14T04:24:14.277Z,8.20
2022-11-14T04:26:59.867Z,8.60
2022-11-14T04:29:45.640Z,9.10
2022-11-14T04:32:30.825Z,7.90
2022-11-14T04:35:16.217Z,8.80
2022-11-14T04:38:01.493Z,8.20
2022-11-14T04:40:51.161Z,9.10
2022-11-14T04:43:36.895Z,7.80
2022-11-14T04:46:22.271Z,8.80
2022-11-14T04:49:07.383Z,8.00
2022-11-14T04:51:52.438Z,7.00
2022-11-14T04:54:37.667Z,7.30
2022-11-14T04:57:23.042Z,7.80
2022-11-14T05:00:09.133Z,6.70
2022-11-14T05:02:54.700Z,7.60
2022-11-14T05:05:42.234Z,7.00
2022-11-14T05:08:27.909Z,7.10
2022-11-14T05:11:17.457Z,7.60
2022-11-14T05:14:02.835Z,7.40
2022-11-14T05:16:48.328Z,7.00
2022-11-14T05:19:33.768Z,6.40
2022-11-14T05:22:19.012Z,6.70
2022-11-14T05:25:05.346Z,6.90
2022-11-14T05:27:50.407Z,6.40
2022-11-14T05:30:35.902Z,6.00
2022-11-14T05:33:20.961Z,5.00
2022-11-14T05:36:11.025Z,5.40
2022-11-14T05:38:56.438Z,5.90
2022-11-14T05:41:41.332Z,5.80
2022-11-14T05:44:26.595Z,6.10
2022-11-14T05:47:11.934Z,5.50
2022-11-14T05:49:57.029Z,4.80
2022-11-14T05:52:42.236Z,5.30
2022-11-14T05:55:27.252Z,5.20
2022-11-14T05:58:12.337Z,5.30
2022-11-14T06:01:14.998Z,5.10
2022-11-14T06:04:00.321Z,6.00
2022-11-14T06:06:45.655Z,6.20
2022-11-14T06:09:30.880Z,6.00
2022-11-14T06:12:16.402Z,5.50
2022-11-14T06:15:01.647Z,5.40
2022-11-14T06:17:46.901Z,4.50
2022-11-14T06:20:32.374Z,4.40
2022-11-14T06:23:21.948Z,4.20
2022-11-14T06:26:30.470Z,4.50
2022-11-14T06:29:15.830Z,4.30
2022-11-14T06:32:01.330Z,4.30
2022-11-14T06:34:46.323Z,4.80
2022-11-14T06:37:33.686Z,4.50
2022-11-14T06:40:19.421Z,3.90
2022-11-14T06:43:04.578Z,3.90
2022-11-14T06:45:50.148Z,4.90
2022-11-14T06:48:35.807Z,4.80
2022-11-14T06:52:34.493Z,5.10
2022-11-14T06:55:25.082Z,5.10
2022-11-14T06:58:11.093Z,5.30
2022-11-14T07:00:56.918Z,6.10
2022-11-14T07:03:42.931Z,5.70
2022-11-14T07:06:28.797Z,5.60
2022-11-14T07:09:14.045Z,4.90
2022-11-14T07:11:59.468Z,5.10
2022-11-14T07:14:44.510Z,5.60
2022-11-14T07:17:31.397Z,5.50
2022-11-14T07:20:18.573Z,5.70
2022-11-14T07:23:03.971Z,6.00
2022-11-14T07:25:49.419Z,7.20
2022-11-14T07:28:35.352Z,6.70
2022-11-14T07:31:20.582Z,7.10
2022-11-14T07:34:06.208Z,7.70
2022-11-14T07:36:51.720Z,7.30
2022-11-14T07:39:36.959Z,8.00
2022-11-14T07:42:22.147Z,9.20
2022-11-14T07:45:08.031Z,8.20
2022-11-14T07:48:00.919Z,8.10
2022-11-14T07:50:47.298Z,8.10
2022-11-14T07:53:32.914Z,8.00
2022-11-14T07:56:18.210Z,8.50
2022-11-14T07:59:03.522Z,8.70
2022-11-14T08:01:48.668Z,8.90
2022-11-14T08:04:34.092Z,9.20
2022-11-14T08:07:21.148Z,9.50
2022-11-14T08:10:07.325Z,8.80
2022-11-14T08:13:24.811Z,8.50
2022-11-14T08:16:13.531Z,8.80
2022-11-14T08:18:59.748Z,9.00
2022-11-14T08:21:45.786Z,10.10
2022-11-14T08:24:31.244Z,10.40
2022-11-14T08:27:16.675Z,10.60
2022-11-14T08:30:01.843Z,10.40
2022-11-14T08:32:47.042Z,10.40
2022-11-14T08:35:33.423Z,12.20
2022-11-14T08:38:19.020Z,11.10
2022-11-14T08:41:04.268Z,11.40
2022-11-14T08:43:49.716Z,11.30
2022-11-14T08:46:35.156Z,11.70
2022-11-14T08:49:20.591Z,12.00
2022-11-14T08:52:05.904Z,11.30
2022-11-14T08:54:51.493Z,11.30
2022-11-14T08:57:36.681Z,11.70
2022-11-14T09:00:22.181Z,12.10
2022-11-14T09:03:08.551Z,12.20
2022-11-14T09:05:54.093Z,11.30
2022-11-14T09:08:39.680Z,10.70
2022-11-14T09:11:24.620Z,11.20
2022-11-14T09:14:09.750Z,12.00
2022-11-14T09:16:54.763Z,11.20
2022-11-14T09:19:39.886Z,11.70
2022-11-14T09:22:25.114Z,11.40
2022-11-14T09:25:10.174Z,11.30
2022-11-14T09:27:57.620Z,10.70
2022-11-14T09:30:42.895Z,11.30
2022-11-14T09:33:28.235Z,11.60
2022-11-14T09:36:18.642Z,10.10
2022-11-14T09:39:03.764Z,10.10
2022-11-14T09:42:16.984Z,10.90
2022-11-14T09:45:12.800Z,10.10
2022-11-14T09:48:10.636Z,9.20
2022-11-14T09:51:09.560Z,9.40
2022-11-14T09:54:08.276Z,9.30
2022-11-14T09:56:53.738Z,8.90
2022-11-14T09:59:39.117Z,9.00
2022-11-14T10:02:31.645Z,9.00
2022-11-14T10:05:39.099Z,8.70
2022-11-14T10:08:32.030Z,7.90
2022-11-14T10:11:43.587Z,8.10
2022-11-14T10:14:28.842Z,7.30
2022-11-14T10:17:50.080Z,6.90
2022-11-14T10:20:48.291Z,7.90
2022-11-14T10:23:44.448Z,7.50
2022-11-14T10:26:30.852Z,7.00
2022-11-14T10:29:41.709Z,7.10
2022-11-14T10:32:40.327Z,6.80
2022-11-14T10:35:34.831Z,6.20
2022-11-14T10:38:24.396Z,5.60
2022-11-14T10:41:19.307Z,5.60
2022-11-14T10:44:18.461Z,6.10
2022-11-14T10:47:08.774Z,5.80
2022-11-14T10:49:55.284Z,5.80
2022-11-14T10:52:41.617Z,5.50
2022-11-14T10:55:57.281Z,5.60
2022-11-14T10:58:46.724Z,5.70
2022-11-14T11:01:56.204Z,5.70
2022-11-14T11:04:42.219Z,5.90
2022-11-14T11:07:46.053Z,5.30
2022-11-14T11:10:50.708Z,5.30
2022-11-14T11:13:37.623Z,5.50
2022-11-14T11:16:23.901Z,5.90
2022-11-14T11:19:30.946Z,5.00
2022-11-14T11:22:25.314Z,5.20
2022-11-14T11:25:23.174Z,5.50
2022-11-14T11:28:15.657Z,5.10
2022-11-14T11:31:06.299Z,5.20
2022-11-14T11:33:51.390Z,5.70
2022-11-14T11:36:41.053Z,5.40
2022-11-14T11:39:29.471Z,5.80
2022-11-14T11:42:19.762Z,5.60
2022-11-14T11:45:09.795Z,5.50
2022-11-14T11:48:01.215Z,5.10
2022-11-14T11:50:46.835Z,5.80
2022-11-14T11:53:35.376Z,5.70
2022-11-14T11:56:30.555Z,6.30
2022-11-14T11:59:35.368Z,6.40
2022-11-14T12:02:23.341Z,7.50
2022-11-14T12:05:14.247Z,8.10
2022-11-14T12:08:21.373Z,7.20
2022-11-14T12:11:10.683Z,7.10
2022-11-14T12:14:21.239Z,6.90
2022-11-14T12:17:20.978Z,6.50
2022-11-14T12:20:40.391Z,6.30
2022-11-14T12:23:37.724Z,7.40
2022-11-14T12:26:44.756Z,6.60
2022-11-14T12:29:33.124Z,7.60
2022-11-14T12:32:21.991Z,6.30
2022-11-14T12:35:08.337Z,6.00
2022-11-14T12:37:55.988Z,6.30
2022-11-14T12:40:48.470Z,5.70
2022-11-14T12:43:37.291Z,5.60
2022-11-14T12:46:23.366Z,6.60
2022-11-14T12:49:46.421Z,5.70
2022-11-14T12:52:40.684Z,5.90
2022-11-14T12:55:25.965Z,5.80
2022-11-14T12:58:12.717Z,5.60
2022-11-14T13:01:35.413Z,5.60
2022-11-14T13:04:42.933Z,5.80
2022-11-14T13:08:05.190Z,6.10
2022-11-14T13:10:50.783Z,7.00
2022-11-14T13:14:13.368Z,6.90
2022-11-14T13:18:04.150Z,6.70
2022-11-14T13:21:20.410Z,6.50
2022-11-14T13:24:06.377Z,5.90
2022-11-14T13:26:53.037Z,6.40
2022-11-14T13:29:41.357Z,6.40
2022-11-14T13:32:41.728Z,6.50
2022-11-14T13:35:43.226Z,6.80
2022-11-14T13:38:59.233Z,7.10
2022-11-14T13:42:05.921Z,8.90
2022-11-14T13:44:57.045Z,7.80
2022-11-14T13:47:57.374Z,7.90
2022-11-14T13:50:43.149Z,9.40
2022-11-14T13:53:29.709Z,8.10
2022-11-14T16:56:57.530Z,12.80
2022-11-14T16:59:42.875Z,13.90
2022-11-14T17:02:28.250Z,13.50
2022-11-14T17:05:13.727Z,12.90
2022-11-14T17:07:59.206Z,12.30
2022-11-14T17:10:45.842Z,12.70
2022-11-14T17:13:32.003Z,12.20
2022-11-14T17:16:17.896Z,12.20
2022-11-14T17:19:03.053Z,12.30
2022-11-14T17:21:48.490Z,15.00
2022-11-14T17:24:33.948Z,13.30
2022-11-14T17:27:19.075Z,12.90
2022-11-14T17:30:04.716Z,12.40
2022-11-14T17:32:55.182Z,13.60
2022-11-14T17:35:41.996Z,12.50
2022-11-14T17:38:27.426Z,12.40
2022-11-14T17:41:12.674Z,12.30
2022-11-14T17:44:01.913Z,11.80
2022-11-14T17:46:47.766Z,12.90
2022-11-14T17:49:33.542Z,12.50
2022-11-14T17:52:18.921Z,11.80
2022-11-14T17:55:04.495Z,9.50
2022-11-14T17:57:49.663Z,8.60
2022-11-14T18:00:34.828Z,9.60
2022-11-14T18:03:20.637Z,7.90
2022-11-14T18:06:09.511Z,7.90
2022-11-14T18:08:54.810Z,7.70
2022-11-14T18:11:40.079Z,7.70
2022-11-14T18:14:25.126Z,8.10
2022-11-14T18:17:13.113Z,7.60
2022-11-14T18:20:01.886Z,7.50
2022-11-14T18:22:47.083Z,7.80
2022-11-14T18:25:32.284Z,7.40
2022-11-14T18:28:17.563Z,7.50
2022-11-14T18:31:04.586Z,7.60
2022-11-14T18:33:50.231Z,7.60
2022-11-14T18:36:35.237Z,7.70
2022-11-14T18:39:20.403Z,7.70
2022-11-14T18:42:05.739Z,7.90
2022-11-14T18:44:51.160Z,7.60
2022-11-14T18:47:36.319Z,8.50
2022-11-14T18:50:21.347Z,8.60
2022-11-14T18:53:06.493Z,7.80
2022-11-14T18:55:53.290Z,8.40
2022-11-14T18:58:39.945Z,8.20
2022-11-14T19:01:27.097Z,7.70
2022-11-14T19:04:13.089Z,7.50
2022-11-14T19:06:58.710Z,7.80
2022-11-14T19:09:44.573Z,7.20
2022-11-14T19:12:29.780Z,7.00
2022-11-14T19:15:14.931Z,7.70
2022-11-14T19:18:00.574Z,7.50
2022-11-14T19:20:56.314Z,6.90
2022-11-14T19:23:41.816Z,7.10
2022-11-14T19:26:27.469Z,7.00
2022-11-14T19:29:13.893Z,7.10
2022-11-14T19:31:59.147Z,7.20
2022-11-14T19:34:45.486Z,7.70
2022-11-14T19:37:30.920Z,7.50
2022-11-14T19:40:16.356Z,7.90
2022-11-14T19:43:04.091Z,8.00
2022-11-14T19:45:49.574Z,8.20
2022-11-14T19:48:35.288Z,8.40
2022-11-14T19:51:22.468Z,8.30
2022-11-14T19:54:09.061Z,8.50
2022-11-14T19:56:54.231Z,9.80
2022-11-14T19:59:39.340Z,10.50
2022-11-14T20:02:25.859Z,10.60
2022-11-14T20:05:11.635Z,10.70
2022-11-14T20:07:57.267Z,10.90
2022-11-14T20:10:48.377Z,11.40
2022-11-14T20:13:38.081Z,12.20
2022-11-14T20:16:25.199Z,12.60
2022-11-14T20:19:10.281Z,12.80
2022-11-14T20:21:55.596Z,12.40
2022-11-14T20:24:41.127Z,12.90
2022-11-14T20:27:26.186Z,13.40
2022-11-14T20:30:11.927Z,22.00
2022-11-14T20:32:56.980Z,21.20
2022-11-14T20:35:42.175Z,16.90
2022-11-14T20:38:30.070Z,15.80
2022-11-14T20:41:15.286Z,13.60
2022-11-14T20:44:02.058Z,12.90
2022-11-14T20:46:47.611Z,13.10
2022-11-14T20:49:33.167Z,12.80
2022-11-14T20:52:18.925Z,12.00
2022-11-14T20:55:11.401Z,12.00
2022-11-14T20:57:57.022Z,11.80
2022-11-14T21:00:42.047Z,11.60
2022-11-14T21:03:27.289Z,10.70
2022-11-14T21:06:12.865Z,10.50
2022-11-14T21:08:58.268Z,8.40
2022-11-14T21:11:43.242Z,5.00
2022-11-14T21:14:28.428Z,5.10
2022-11-14T21:17:13.536Z,4.60
2022-11-14T21:19:58.867Z,5.30
2022-11-14T21:22:44.544Z,7.60
2022-11-14T21:25:29.778Z,8.90
2022-11-14T21:28:15.640Z,9.60
2022-11-14T21:31:01.081Z,8.80
2022-11-14T21:33:46.905Z,8.30
2022-11-14T21:36:47.732Z,6.90
2022-11-14T21:39:32.931Z,7.20
2022-11-14T21:42:18.836Z,8.90
2022-11-14T21:45:04.776Z,8.90
2022-11-14T21:47:50.262Z,7.40
2022-11-14T21:50:35.323Z,9.70
2022-11-14T21:53:20.623Z,10.60
2022-11-14T21:56:08.970Z,10.80
2022-11-14T21:59:12.833Z,11.00
2022-11-14T22:02:17.216Z,11.20
2022-11-14T22:05:02.638Z,11.30
2022-11-14T22:07:48.275Z,10.70
2022-11-14T22:10:33.972Z,10.50
2022-11-14T22:13:19.480Z,10.60
2022-11-14T22:16:08.548Z,10.00
2022-11-14T22:18:54.096Z,9.60
2022-11-14T22:21:39.734Z,9.30
2022-11-14T22:24:25.267Z,8.70
2022-11-14T22:27:10.575Z,8.80
2022-11-14T22:29:55.578Z,8.30
2022-11-14T22:32:40.657Z,8.40
2022-11-14T22:35:26.090Z,8.10
2022-11-14T22:38:11.647Z,7.50
2022-11-14T22:40:57.890Z,7.60
2022-11-14T22:43:43.543Z,8.20
2022-11-14T22:46:28.917Z,7.80
2022-11-14T22:49:18.399Z,7.90
2022-11-14T22:52:06.150Z,8.00
2022-11-14T22:54:51.382Z,8.20
2022-11-14T22:57:36.555Z,7.70
2022-11-14T23:00:21.932Z,8.00
2022-11-14T23:03:07.529Z,7.20
2022-11-14T23:05:53.151Z,7.70
2022-11-14T23:08:38.857Z,7.40
2022-11-14T23:11:26.345Z,7.10
2022-11-14T23:14:12.339Z,7.10
2022-11-14T23:16:57.775Z,7.50
2022-11-14T23:19:43.090Z,7.30
2022-11-14T23:22:28.095Z,7.30
2022-11-14T23:25:13.188Z,7.60
2022-11-14T23:27:58.215Z,8.30
2022-11-14T23:30:43.362Z,7.40
2022-11-14T23:33:29.127Z,7.40
2022-11-14T23:36:15.093Z,7.10
2022-11-14T23:39:00.364Z,6.50
2022-11-14T23:41:45.334Z,6.90
2022-11-14T23:44:30.475Z,6.90
2022-11-14T23:47:15.691Z,7.00
2022-11-14T23:50:01.239Z,7.20
2022-11-14T23:52:46.552Z,6.90
2022-11-14T23:55:31.869Z,6.40
2022-11-14T23:58:16.985Z,6.90
